sensor_id;sensor_type;location;lat;lon;timestamp;temperature;humidity
44731;DHT22;30458;47.448;19.032;2022-12-29T00:09:26;3.80;99.90
44731;DHT22;30458;47.448;19.032;2022-12-29T00:19:27;3.60;99.90
44731;DHT22;30458;47.448;19.032;2022-12-29T00:29:47;3.50;99.90
44731;DHT22;30458;47.448;19.032;2022-12-29T00:40:07;3.60;99.90
44731;DHT22;30458;47.448;19.032;2022-12-29T00:50:29;3.50;99.90
44731;DHT22;30458;47.448;19.032;2022-12-29T01:00:30;3.50;99.90
44731;DHT22;30458;47.448;19.032;2022-12-29T01:10:30;3.40;99.90
44731;DHT22;30458;47.448;19.032;2022-12-29T01:20:34;3.40;99.90
44731;DHT22;30458;47.448;19.032;2022-12-29T01:30:39;3.30;99.90
44731;DHT22;30458;47.448;19.032;2022-12-29T01:40:45;3.30;99.90
44731;DHT22;30458;47.448;19.032;2022-12-29T01:50:53;3.30;99.90
44731;DHT22;30458;47.448;19.032;2022-12-29T02:00:56;3.30;99.90
44731;DHT22;30458;47.448;19.032;2022-12-29T02:11:03;3.20;99.90
44731;DHT22;30458;47.448;19.032;2022-12-29T02:31:58;3.20;99.90
44731;DHT22;30458;47.448;19.032;2022-12-29T02:52:28;3.30;99.90
44731;DHT22;30458;47.448;19.032;2022-12-29T03:12:59;3.10;99.90
44731;DHT22;30458;47.448;19.032;2022-12-29T03:23:23;3.20;99.90
44731;DHT22;30458;47.448;19.032;2022-12-29T03:33:31;3.20;99.90
44731;DHT22;30458;47.448;19.032;2022-12-29T03:43:37;3.20;99.90
44731;DHT22;30458;47.448;19.032;2022-12-29T03:53:41;3.40;99.90
44731;DHT22;30458;47.448;19.032;2022-12-29T04:03:44;3.60;99.90
44731;DHT22;30458;47.448;19.032;2022-12-29T04:13:53;3.60;99.90
44731;DHT22;30458;47.448;19.032;2022-12-29T04:23:58;3.60;99.90
44731;DHT22;30458;47.448;19.032;2022-12-29T04:33:59;3.70;99.90
44731;DHT22;30458;47.448;19.032;2022-12-29T04:44:01;3.80;99.90
44731;DHT22;30458;47.448;19.032;2022-12-29T04:54:08;3.80;99.90
44731;DHT22;30458;47.448;19.032;2022-12-29T05:04:09;3.90;99.90
44731;DHT22;30458;47.448;19.032;2022-12-29T05:14:11;3.90;99.90
44731;DHT22;30458;47.448;19.032;2022-12-29T05:24:12;4.00;99.90
44731;DHT22;30458;47.448;19.032;2022-12-29T05:34:13;3.90;99.90
44731;DHT22;30458;47.448;19.032;2022-12-29T05:44:17;3.80;99.90
44731;DHT22;30458;47.448;19.032;2022-12-29T05:54:38;3.80;99.90
44731;DHT22;30458;47.448;19.032;2022-12-29T06:04:45;3.90;99.90
44731;DHT22;30458;47.448;19.032;2022-12-29T06:14:46;3.90;99.90
44731;DHT22;30458;47.448;19.032;2022-12-29T06:24:50;3.80;99.90
44731;DHT22;30458;47.448;19.032;2022-12-29T06:34:53;3.80;99.90
44731;DHT22;30458;47.448;19.032;2022-12-29T06:44:56;3.70;99.90
44731;DHT22;30458;47.448;19.032;2022-12-29T06:55:01;3.80;99.90
44731;DHT22;30458;47.448;19.032;2022-12-29T07:05:01;3.90;99.90
44731;DHT22;30458;47.448;19.032;2022-12-29T07:15:02;4.20;99.90
44731;DHT22;30458;47.448;19.032;2022-12-29T07:25:04;4.50;99.90
44731;DHT22;30458;47.448;19.032;2022-12-29T07:35:07;4.70;99.90
44731;DHT22;30458;47.448;19.032;2022-12-29T07:45:10;5.90;99.90
44731;DHT22;30458;47.448;19.032;2022-12-29T07:55:41;8.20;99.90
44731;DHT22;30458;47.448;19.032;2022-12-29T08:05:42;10.10;96.40
44731;DHT22;30458;47.448;19.032;2022-12-29T08:15:47;11.30;93.30
44731;DHT22;30458;47.448;19.032;2022-12-29T08:25:57;10.60;92.40
44731;DHT22;30458;47.448;19.032;2022-12-29T08:36:02;8.80;94.50
44731;DHT22;30458;47.448;19.032;2022-12-29T08:46:04;7.00;97.20
44731;DHT22;30458;47.448;19.032;2022-12-29T08:56:08;6.00;99.90
44731;DHT22;30458;47.448;19.032;2022-12-29T09:06:18;5.60;99.90
44731;DHT22;30458;47.448;19.032;2022-12-29T09:16:23;5.20;99.90
44731;DHT22;30458;47.448;19.032;2022-12-29T09:26:27;5.10;99.90
44731;DHT22;30458;47.448;19.032;2022-12-29T09:36:30;5.10;99.90
44731;DHT22;30458;47.448;19.032;2022-12-29T09:46:53;5.00;99.90
44731;DHT22;30458;47.448;19.032;2022-12-29T09:56:55;4.90;99.90
44731;DHT22;30458;47.448;19.032;2022-12-29T10:07:29;5.00;99.90
44731;DHT22;30458;47.448;19.032;2022-12-29T10:17:46;5.00;99.90
44731;DHT22;30458;47.448;19.032;2022-12-29T10:27:50;5.00;99.90
44731;DHT22;30458;47.448;19.032;2022-12-29T10:38:27;5.10;99.90
44731;DHT22;30458;47.448;19.032;2022-12-29T10:48:39;5.30;99.90
44731;DHT22;30458;47.448;19.032;2022-12-29T10:58:43;5.60;99.90
44731;DHT22;30458;47.448;19.032;2022-12-29T11:08:58;5.70;99.90
44731;DHT22;30458;47.448;19.032;2022-12-29T11:19:00;5.60;99.90
44731;DHT22;30458;47.448;19.032;2022-12-29T11:29:19;5.60;99.90
44731;DHT22;30458;47.448;19.032;2022-12-29T11:49:54;5.60;99.90
44731;DHT22;30458;47.448;19.032;2022-12-29T12:00:00;5.60;99.90
44731;DHT22;30458;47.448;19.032;2022-12-29T12:10:03;5.60;99.90
44731;DHT22;30458;47.448;19.032;2022-12-29T12:20:18;5.70;99.90
44731;DHT22;30458;47.448;19.032;2022-12-29T12:30:26;5.70;99.90
44731;DHT22;30458;47.448;19.032;2022-12-29T12:41:09;5.70;99.90
44731;DHT22;30458;47.448;19.032;2022-12-29T13:11:55;6.00;99.90
44731;DHT22;30458;47.448;19.032;2022-12-29T13:22:10;6.10;99.90
44731;DHT22;30458;47.448;19.032;2022-12-29T13:42:54;6.20;99.90
44731;DHT22;30458;47.448;19.032;2022-12-29T14:03:27;6.30;99.90
44731;DHT22;30458;47.448;19.032;2022-12-29T14:13:40;6.30;99.90
44731;DHT22;30458;47.448;19.032;2022-12-29T14:23:45;6.30;99.90
44731;DHT22;30458;47.448;19.032;2022-12-29T14:44:20;6.20;99.90
44731;DHT22;30458;47.448;19.032;2022-12-29T15:04:39;6.10;99.90
44731;DHT22;30458;47.448;19.032;2022-12-29T15:14:55;6.00;99.90
44731;DHT22;30458;47.448;19.032;2022-12-29T15:24:59;6.00;99.90
44731;DHT22;30458;47.448;19.032;2022-12-29T15:35:00;5.90;99.90
44731;DHT22;30458;47.448;19.032;2022-12-29T15:45:05;5.70;99.90
44731;DHT22;30458;47.448;19.032;2022-12-29T15:55:24;5.60;99.90
44731;DHT22;30458;47.448;19.032;2022-12-29T16:05:35;5.50;99.90
44731;DHT22;30458;47.448;19.032;2022-12-29T16:15:38;5.10;99.90
44731;DHT22;30458;47.448;19.032;2022-12-29T16:25:41;4.80;99.90
44731;DHT22;30458;47.448;19.032;2022-12-29T16:35:45;4.80;99.90
44731;DHT22;30458;47.448;19.032;2022-12-29T16:55:48;5.10;99.90
44731;DHT22;30458;47.448;19.032;2022-12-29T17:05:49;5.00;99.90
44731;DHT22;30458;47.448;19.032;2022-12-29T17:15:50;4.30;99.90
44731;DHT22;30458;47.448;19.032;2022-12-29T17:25:54;4.40;99.90
44731;DHT22;30458;47.448;19.032;2022-12-29T17:35:55;4.40;99.90
44731;DHT22;30458;47.448;19.032;2022-12-29T17:45:57;4.40;99.90
44731;DHT22;30458;47.448;19.032;2022-12-29T17:55:58;4.30;99.90
44731;DHT22;30458;47.448;19.032;2022-12-29T18:05:59;4.30;99.90
44731;DHT22;30458;47.448;19.032;2022-12-29T18:16:00;4.40;99.90
44731;DHT22;30458;47.448;19.032;2022-12-29T18:26:02;4.10;99.90
44731;DHT22;30458;47.448;19.032;2022-12-29T18:36:04;4.00;99.90
44731;DHT22;30458;47.448;19.032;2022-12-29T18:46:05;4.00;99.90
44731;DHT22;30458;47.448;19.032;2022-12-29T18:56:06;4.00;99.90
44731;DHT22;30458;47.448;19.032;2022-12-29T19:06:09;4.20;99.90
44731;DHT22;30458;47.448;19.032;2022-12-29T19:16:17;3.90;99.90
44731;DHT22;30458;47.448;19.032;2022-12-29T19:26:33;3.90;99.90
44731;DHT22;30458;47.448;19.032;2022-12-29T19:36:35;4.00;99.90
44731;DHT22;30458;47.448;19.032;2022-12-29T19:46:38;4.10;99.90
44731;DHT22;30458;47.448;19.032;2022-12-29T19:56:39;3.90;99.90
44731;DHT22;30458;47.448;19.032;2022-12-29T20:06:42;4.00;99.90
44731;DHT22;30458;47.448;19.032;2022-12-29T20:16:43;4.00;99.90
44731;DHT22;30458;47.448;19.032;2022-12-29T20:26:43;4.00;99.90
44731;DHT22;30458;47.448;19.032;2022-12-29T20:36:50;4.10;99.90
44731;DHT22;30458;47.448;19.032;2022-12-29T20:46:51;4.00;99.90
44731;DHT22;30458;47.448;19.032;2022-12-29T20:56:51;3.90;99.90
44731;DHT22;30458;47.448;19.032;2022-12-29T21:06:53;4.00;99.90
44731;DHT22;30458;47.448;19.032;2022-12-29T21:16:56;4.00;99.90
44731;DHT22;30458;47.448;19.032;2022-12-29T21:26:59;4.00;99.90
44731;DHT22;30458;47.448;19.032;2022-12-29T21:37:00;4.10;99.90
44731;DHT22;30458;47.448;19.032;2022-12-29T21:47:00;4.20;99.90
44731;DHT22;30458;47.448;19.032;2022-12-29T21:57:04;4.40;99.90
44731;DHT22;30458;47.448;19.032;2022-12-29T22:07:07;4.30;99.90
44731;DHT22;30458;47.448;19.032;2022-12-29T22:17:27;4.20;99.90
44731;DHT22;30458;47.448;19.032;2022-12-29T22:27:30;4.20;99.90
44731;DHT22;30458;47.448;19.032;2022-12-29T22:37:36;4.20;99.90
44731;DHT22;30458;47.448;19.032;2022-12-29T22:47:41;4.40;99.90
44731;DHT22;30458;47.448;19.032;2022-12-29T22:57:44;4.50;99.90
44731;DHT22;30458;47.448;19.032;2022-12-29T23:07:48;4.60;99.90
44731;DHT22;30458;47.448;19.032;2022-12-29T23:17:48;4.70;99.90
44731;DHT22;30458;47.448;19.032;2022-12-29T23:27:54;4.50;99.90
44731;DHT22;30458;47.448;19.032;2022-12-29T23:37:57;4.50;99.90
44731;DHT22;30458;47.448;19.032;2022-12-29T23:47:58;4.60;99.90
44731;DHT22;30458;47.448;19.032;2022-12-29T23:57:58;4.60;99.90
